Time;durP1;ratioP1;P1;durP2;ratioP2;P2;SDS_P1;SDS_P2;PMS_P1;PMS_P2;Temp;Humidity;BMP_temperature;BMP_pressure;BME280_temperature;BME280_humidity;BME280_pressure;Samples;Min_cycle;Max_cycle;Signal;HPM_P1;HPM_P2
2021/08/25 00:00:27;;;;;;;11.47;8.93;;;;;;;13.25;100.00;96482.59;1040580;28;20065;-75
2021/08/25 00:00:58;;;;;;;12.97;9.07;;;;;;;13.31;100.00;96488.75;1040541;28;20473;-75
2021/08/25 00:01:28;;;;;;;11.67;9.20;;;;;;;13.33;100.00;96487.41;1036455;28;20029;-75
2021/08/25 00:01:58;;;;;;;15.03;9.17;;;;;;;13.32;100.00;96488.50;1032284;28;20093;-74
2021/08/25 00:02:29;;;;;;;11.53;8.93;;;;;;;13.35;100.00;96484.44;1032085;28;20077;-75
2021/08/25 00:02:59;;;;;;;11.13;9.60;;;;;;;13.34;100.00;96477.47;1032473;28;20431;-75
2021/08/25 00:03:30;;;;;;;13.03;9.07;;;;;;;13.32;100.00;96485.81;1036484;28;20521;-75
2021/08/25 00:04:00;;;;;;;12.40;8.90;;;;;;;13.34;100.00;96489.00;1036436;28;20080;-76
2021/08/25 00:04:31;;;;;;;11.83;8.93;;;;;;;13.35;100.00;96479.88;1040490;28;20025;-75
2021/08/25 00:05:03;;;;;;;14.00;9.53;;;;;;;13.33;100.00;96479.34;1044690;28;20406;-75
2021/08/25 00:05:33;;;;;;;13.00;9.40;;;;;;;13.27;100.00;96483.94;1044741;28;20036;-75
2021/08/25 00:06:04;;;;;;;12.17;8.50;;;;;;;13.33;100.00;96482.03;1044511;28;20035;-75
2021/08/25 00:06:34;;;;;;;10.80;9.40;;;;;;;13.36;100.00;96480.66;1040529;28;20402;-75
2021/08/25 00:07:08;;;;;;;11.33;9.37;;;;;;;13.37;100.00;96477.72;1040462;28;20143;-75
2021/08/25 00:07:38;;;;;;;11.25;8.73;;;;;;;13.38;100.00;96475.84;1036932;28;20471;-75
2021/08/25 00:08:09;;;;;;;11.80;9.20;;;;;;;13.39;100.00;96480.13;1041028;28;20033;-75
2021/08/25 00:08:39;;;;;;;11.50;9.00;;;;;;;13.41;100.00;96481.47;1040222;28;20026;-75
2021/08/25 00:09:09;;;;;;;14.93;9.50;;;;;;;13.43;100.00;96482.00;1040969;28;20044;-75
2021/08/25 00:09:41;;;;;;;14.20;9.33;;;;;;;13.42;100.00;96474.22;1044651;28;20028;-75
2021/08/25 00:10:11;;;;;;;11.35;8.60;;;;;;;13.46;100.00;96477.94;1040651;28;20029;-75
2021/08/25 00:10:42;;;;;;;9.97;8.33;;;;;;;13.46;100.00;96483.31;1036344;28;20049;-76
2021/08/25 00:11:12;;;;;;;11.33;8.80;;;;;;;13.41;100.00;96480.63;1036373;28;20026;-75
2021/08/25 00:11:42;;;;;;;17.20;8.80;;;;;;;13.43;100.00;96473.13;1036311;28;20018;-75
2021/08/25 00:12:13;;;;;;;10.93;9.40;;;;;;;13.36;100.00;96480.66;1040520;28;20029;-75
2021/08/25 00:12:43;;;;;;;12.93;9.87;;;;;;;13.40;100.00;96476.34;1044855;28;20017;-75
2021/08/25 00:13:14;;;;;;;11.57;8.87;;;;;;;13.43;100.00;96473.94;1044933;28;20016;-75
2021/08/25 00:13:44;;;;;;;11.90;9.37;;;;;;;13.42;100.00;96475.03;1044537;28;20024;-75
2021/08/25 00:14:15;;;;;;;12.50;9.43;;;;;;;13.40;100.00;96477.16;1040452;28;20029;-75
2021/08/25 00:14:45;;;;;;;12.03;9.43;;;;;;;13.41;100.00;96477.97;1036373;28;20050;-75
2021/08/25 00:15:15;;;;;;;15.80;9.83;;;;;;;13.38;100.00;96473.16;1036518;28;20041;-76
2021/08/25 00:15:46;;;;;;;11.80;9.30;;;;;;;13.41;100.00;96475.28;1040543;28;20033;-75
2021/08/25 00:16:17;;;;;;;15.43;9.77;;;;;;;13.32;100.00;96468.91;1044603;28;20351;-76
2021/08/25 00:16:47;;;;;;;12.40;9.52;;;;;;;13.32;100.00;96474.25;1040325;28;20030;-75
2021/08/25 00:17:19;;;;;;;13.47;9.70;;;;;;;13.31;100.00;96472.63;1040560;28;20503;-75
2021/08/25 00:17:49;;;;;;;12.55;9.55;;;;;;;13.24;100.00;96470.25;1040255;28;20057;-75
2021/08/25 00:18:19;;;;;;;11.50;9.17;;;;;;;13.27;100.00;96472.41;1040656;28;20033;-75
2021/08/25 00:18:50;;;;;;;11.63;9.87;;;;;;;13.23;100.00;96471.34;1044081;28;20393;-75
2021/08/25 00:19:20;;;;;;;12.90;9.60;;;;;;;13.22;100.00;96465.16;1044314;28;20033;-75
2021/08/25 00:19:51;;;;;;;11.40;10.07;;;;;;;13.26;100.00;96466.22;1044718;28;20047;-75
2021/08/25 00:20:21;;;;;;;12.47;10.13;;;;;;;13.27;100.00;96469.72;1040527;28;20021;-75
2021/08/25 00:20:51;;;;;;;12.27;9.97;;;;;;;13.25;100.00;96472.66;1040365;28;20087;-76
2021/08/25 00:21:22;;;;;;;13.93;10.70;;;;;;;13.24;100.00;96465.69;1040465;28;20033;-76
2021/08/25 00:21:54;;;;;;;12.63;9.83;;;;;;;13.28;100.00;96471.31;1036425;28;20029;-75
2021/08/25 00:22:24;;;;;;;14.43;9.40;;;;;;;13.29;100.00;96464.06;1040660;28;20433;-75
2021/08/25 00:22:55;;;;;;;11.53;9.83;;;;;;;13.29;100.00;96464.88;1044455;28;20025;-76
2021/08/25 00:23:25;;;;;;;13.57;10.10;;;;;;;13.29;100.00;96472.91;1044600;28;20025;-75
2021/08/25 00:23:55;;;;;;;12.83;9.87;;;;;;;13.27;100.00;96467.84;1044760;28;20025;-76
2021/08/25 00:24:26;;;;;;;10.73;9.40;;;;;;;13.26;100.00;96470.81;1040487;28;20477;-76
2021/08/25 00:24:56;;;;;;;12.37;9.50;;;;;;;13.26;100.00;96466.22;1036230;28;20026;-75
2021/08/25 00:25:27;;;;;;;12.17;9.63;;;;;;;13.29;100.00;96472.91;1032236;28;20049;-75
2021/08/25 00:25:58;;;;;;;13.30;9.70;;;;;;;13.27;100.00;96467.03;1028452;28;20033;-75
2021/08/25 00:26:29;;;;;;;12.93;9.85;;;;;;;13.25;100.00;96461.13;1036576;28;20075;-76
2021/08/25 00:26:59;;;;;;;12.03;9.80;;;;;;;13.22;100.00;96469.75;1036408;28;20030;-76
2021/08/25 00:27:29;;;;;;;11.50;9.37;;;;;;;13.24;100.00;96472.94;1040741;28;20417;-75
2021/08/25 00:28:00;;;;;;;13.93;9.70;;;;;;;13.26;100.00;96470.81;1044524;28;20473;-76
2021/08/25 00:28:30;;;;;;;14.10;10.00;;;;;;;13.29;100.00;96469.44;1044616;28;20036;-75
2021/08/25 00:29:01;;;;;;;11.77;9.37;;;;;;;13.28;100.00;96474.00;1044624;28;20021;-75
2021/08/25 00:29:31;;;;;;;14.27;10.33;;;;;;;13.27;100.00;96467.03;1044497;28;20025;-75
2021/08/25 00:30:03;;;;;;;12.10;9.27;;;;;;;13.23;100.00;96466.78;1044558;28;20021;-75
2021/08/25 00:30:34;;;;;;;16.13;10.30;;;;;;;13.21;100.00;96476.16;1044602;28;20049;-76
2021/08/25 00:31:04;;;;;;;13.13;9.57;;;;;;;13.20;100.00;96466.47;1044527;28;20029;-75
2021/08/25 00:31:35;;;;;;;12.57;10.00;;;;;;;13.20;100.00;96467.28;1040441;28;20029;-75
2021/08/25 00:32:05;;;;;;;14.73;10.03;;;;;;;13.21;100.00;96466.25;1040483;28;20402;-75
2021/08/25 00:32:36;;;;;;;12.77;9.87;;;;;;;13.16;100.00;96470.81;1036328;28;20018;-75
2021/08/25 00:33:06;;;;;;;14.37;9.90;;;;;;;13.17;100.00;96470.53;1036456;28;20034;-75
2021/08/25 00:33:37;;;;;;;13.47;9.77;;;;;;;13.19;100.00;96467.56;1044532;28;20387;-74
2021/08/25 00:34:08;;;;;;;11.20;9.97;;;;;;;13.18;100.00;96468.66;1044542;28;20493;-75
2021/08/25 00:34:38;;;;;;;13.20;10.05;;;;;;;13.21;100.00;96468.09;1044871;28;20025;-75
2021/08/25 00:35:09;;;;;;;14.43;10.17;;;;;;;13.21;100.00;96465.41;1044393;28;20480;-74
2021/08/25 00:35:39;;;;;;;12.03;9.53;;;;;;;13.23;100.00;96463.28;1044575;28;20021;-74
2021/08/25 00:36:09;;;;;;;11.60;10.00;;;;;;;13.20;100.00;96464.59;1044534;28;20021;-75
2021/08/25 00:36:40;;;;;;;13.37;10.27;;;;;;;13.16;100.00;96466.25;1044552;28;20091;-75
2021/08/25 00:37:10;;;;;;;14.10;10.73;;;;;;;13.18;100.00;96461.41;1044840;28;20020;-74
2021/08/25 00:37:41;;;;;;;15.03;10.57;;;;;;;13.19;100.00;96465.69;1044850;28;20017;-75
2021/08/25 00:38:11;;;;;;;12.47;9.90;;;;;;;13.21;100.00;96462.75;1044832;28;20013;-75
2021/08/25 00:38:42;;;;;;;14.10;10.50;;;;;;;13.19;100.00;96470.25;1044252;28;20017;-75
2021/08/25 00:39:12;;;;;;;13.77;10.20;;;;;;;13.18;100.00;96472.13;1044449;28;20402;-75
2021/08/25 00:39:42;;;;;;;11.23;9.63;;;;;;;13.13;100.00;96460.63;1040428;28;20479;-75
2021/08/25 00:40:13;;;;;;;13.17;10.27;;;;;;;13.15;100.00;96469.97;1040421;28;20017;-75
2021/08/25 00:40:43;;;;;;;12.63;10.30;;;;;;;13.17;100.00;96464.38;1044553;28;20013;-76
2021/08/25 00:41:14;;;;;;;12.93;10.00;;;;;;;13.22;100.00;96461.69;1044467;28;20382;-74
2021/08/25 00:41:44;;;;;;;11.50;9.87;;;;;;;13.22;100.00;96456.31;1044808;28;20028;-74
2021/08/25 00:42:15;;;;;;;13.67;10.40;;;;;;;13.18;100.00;96463.28;1044805;28;20377;-75
2021/08/25 00:42:45;;;;;;;14.60;10.10;;;;;;;13.20;100.00;96467.28;1044514;28;20032;-75
2021/08/25 00:43:15;;;;;;;12.37;9.87;;;;;;;13.18;100.00;96464.06;1040345;28;20402;-75
2021/08/25 00:43:46;;;;;;;14.23;10.63;;;;;;;13.21;100.00;96466.25;1040317;28;20471;-74
2021/08/25 00:44:17;;;;;;;12.93;9.90;;;;;;;13.17;100.00;96457.09;1040411;28;20030;-75
2021/08/25 00:44:47;;;;;;;14.37;10.80;;;;;;;13.18;100.00;96464.06;1044493;28;20025;-75
2021/08/25 00:45:17;;;;;;;11.27;9.93;;;;;;;13.19;100.00;96462.19;1044748;28;20025;-75
2021/08/25 00:45:48;;;;;;;13.40;10.03;;;;;;;13.18;100.00;96465.97;1044385;28;20024;-75
2021/08/25 00:46:19;;;;;;;11.83;9.80;;;;;;;13.20;100.00;96461.09;1044463;28;20021;-75
2021/08/25 00:46:49;;;;;;;14.75;10.45;;;;;;;13.25;100.00;96471.84;1036310;28;20018;-75
2021/08/25 00:47:20;;;;;;;11.83;9.90;;;;;;;13.24;100.00;96459.53;1036453;28;20025;-75
2021/08/25 00:47:51;;;;;;;12.63;10.00;;;;;;;13.24;100.00;96464.88;1036217;28;20042;-75
2021/08/25 00:48:21;;;;;;;14.48;9.55;;;;;;;13.27;100.00;96469.72;1036596;28;20026;-74
2021/08/25 00:48:52;;;;;;;12.50;9.60;;;;;;;13.25;100.00;96469.97;1040028;28;20069;-75
2021/08/25 00:49:22;;;;;;;11.17;9.47;;;;;;;13.31;100.00;96469.94;1036452;28;20018;-75
2021/08/25 00:49:53;;;;;;;14.10;9.57;;;;;;;13.29;100.00;96464.88;1040343;28;20013;-75
2021/08/25 00:50:23;;;;;;;12.93;9.77;;;;;;;13.30;100.00;96463.78;1036406;28;20033;-75
2021/08/25 00:50:53;;;;;;;14.63;10.20;;;;;;;13.31;100.00;96468.09;1040508;28;20021;-75
2021/08/25 00:51:24;;;;;;;12.23;9.47;;;;;;;13.32;100.00;96464.31;1044528;28;20017;-74
2021/08/25 00:51:54;;;;;;;13.47;10.10;;;;;;;13.33;100.00;96460.56;1044407;28;20406;-75
2021/08/25 00:52:25;;;;;;;12.87;9.70;;;;;;;13.33;100.00;96471.28;1044824;28;20017;-75
2021/08/25 00:52:55;;;;;;;11.37;9.80;;;;;;;13.35;100.00;96466.44;1040308;28;20104;-74
2021/08/25 00:53:26;;;;;;;12.07;9.13;;;;;;;13.39;100.00;96464.03;1040355;28;20026;-74
2021/08/25 00:53:56;;;;;;;13.00;10.33;;;;;;;13.43;100.00;96463.19;1036130;28;20021;-75
2021/08/25 00:54:27;;;;;;;12.07;10.10;;;;;;;13.47;100.00;96466.13;1036482;28;20057;-74
2021/08/25 00:54:59;;;;;;;11.87;9.10;;;;;;;13.50;100.00;96465.56;1040022;28;20013;-75
2021/08/25 00:55:31;;;;;;;12.43;9.27;;;;;;;13.44;100.00;96464.78;1036471;28;20058;-75
2021/08/25 00:56:02;;;;;;;11.27;9.50;;;;;;;13.36;100.00;96460.03;1032212;28;20154;-75
2021/08/25 00:56:32;;;;;;;13.00;9.37;;;;;;;13.38;100.00;96468.59;1032818;28;20113;-75
2021/08/25 00:57:03;;;;;;;14.20;10.50;;;;;;;13.31;100.00;96467.25;1036704;28;20104;-75
2021/08/25 00:57:34;;;;;;;14.52;9.40;;;;;;;13.37;100.00;96474.25;1040509;28;20505;-75
2021/08/25 00:58:05;;;;;;;11.27;9.53;;;;;;;13.36;100.00;96468.06;1044423;28;20036;-75
2021/08/25 00:58:37;;;;;;;12.95;9.98;;;;;;;13.35;100.00;96468.31;1040231;28;20325;-75
2021/08/25 00:59:07;;;;;;;14.02;10.00;;;;;;;13.31;100.00;96464.59;1040346;28;20108;-74
2021/08/25 00:59:38;;;;;;;11.63;9.67;;;;;;;13.23;100.00;96466.78;1040173;28;20025;-74
2021/08/25 01:00:12;;;;;;;12.83;9.93;;;;;;;13.29;100.00;96456.81;1036402;28;20021;-74
2021/08/25 01:00:48;;;;;;;11.82;9.60;;;;;;;13.24;100.00;96462.19;1036183;28;20025;-74
2021/08/25 01:01:35;;;;;;;11.80;10.23;;;;;;;13.21;100.00;96460.06;1033468;28;20033;-75
2021/08/25 01:02:16;;;;;;;12.70;9.55;;;;;;;13.26;100.00;96462.75;1036258;28;20026;-74
2021/08/25 01:02:47;;;;;;;;;;;;;;;13.24;100.00;96464.88;1044809;28;20033;-74
2021/08/25 01:03:19;;;;;;;11.85;9.70;;;;;;;13.25;100.00;96453.06;1044707;28;19909;-74
2021/08/25 01:03:52;;;;;;;16.10;9.50;;;;;;;13.20;100.00;96461.09;1044361;28;20029;-74
2021/08/25 01:04:30;;;;;;;14.05;10.15;;;;;;;13.25;100.00;96463.81;1036166;28;20028;-74
2021/08/25 01:05:00;;;;;;;14.88;9.95;;;;;;;13.23;100.00;96464.09;1031871;28;20109;-74
2021/08/25 01:05:33;;;;;;;13.00;10.03;;;;;;;13.27;100.00;96461.66;1028159;28;20077;-74
2021/08/25 01:06:03;;;;;;;11.88;9.95;;;;;;;13.30;100.00;96465.66;1033486;28;20468;-74
2021/08/25 01:06:34;;;;;;;12.17;10.03;;;;;;;13.28;100.00;96460.59;1024119;28;20027;-74
2021/08/25 01:07:04;;;;;;;11.23;9.17;;;;;;;13.25;100.00;96458.44;1028105;28;20030;-74
2021/08/25 01:07:36;;;;;;;15.30;10.17;;;;;;;13.29;100.00;96464.06;1036211;28;20022;-75
2021/08/25 01:08:06;;;;;;;16.45;10.25;;;;;;;13.26;100.00;96462.75;1024117;29;20034;-74
2021/08/25 01:08:37;;;;;;;12.83;9.60;;;;;;;13.27;100.00;96467.84;1028081;28;20515;-75
2021/08/25 01:09:07;;;;;;;15.17;10.07;;;;;;;13.29;100.00;96461.38;1024352;28;20019;-74
2021/08/25 01:09:38;;;;;;;11.93;9.57;;;;;;;13.27;100.00;96464.34;1032181;28;20472;-75
2021/08/25 01:10:29;;;;;;;11.60;9.88;;;;;;;13.21;100.00;96463.56;1036301;28;20522;-74
2021/08/25 01:11:11;;;;;;;12.25;9.88;;;;;;;13.24;100.00;96457.63;1036096;28;20434;-74
2021/08/25 01:11:43;;;;;;;13.23;9.50;;;;;;;13.26;100.00;96465.44;1031902;28;20348;-74
2021/08/25 01:12:13;;;;;;;11.45;9.32;;;;;;;13.20;100.00;96456.53;1028151;28;20508;-75
2021/08/25 01:12:44;;;;;;;11.70;10.10;;;;;;;13.18;100.00;96456.03;1031810;28;20023;-74
2021/08/25 01:13:14;;;;;;;16.17;10.03;;;;;;;13.24;100.00;96457.63;1036385;28;20026;-74
2021/08/25 01:13:44;;;;;;;12.43;9.60;;;;;;;13.25;100.00;96450.38;1040243;28;20021;-75
2021/08/25 01:14:16;;;;;;;11.30;9.50;;;;;;;13.26;100.00;96460.06;1032104;28;20022;-75
2021/08/25 01:14:46;;;;;;;13.63;10.30;;;;;;;13.24;100.00;96456.84;1028143;28;20038;-75
2021/08/25 01:15:17;;;;;;;13.50;10.10;;;;;;;13.26;100.00;96457.38;1031778;28;20045;-74
2021/08/25 01:15:47;;;;;;;15.40;10.13;;;;;;;13.26;100.00;96458.19;1036172;28;20455;-75
2021/08/25 01:16:17;;;;;;;12.67;9.77;;;;;;;13.29;100.00;96459.50;1040443;28;20044;-74
2021/08/25 01:16:48;;;;;;;12.50;9.60;;;;;;;13.22;100.00;96461.69;1044211;28;20035;-75
2021/08/25 01:17:25;;;;;;;12.73;9.87;;;;;;;13.17;100.00;96450.94;1036211;28;20474;-75
2021/08/25 01:17:55;;;;;;;15.20;10.40;;;;;;;13.17;100.00;96453.63;1036149;28;20052;-75
2021/08/25 01:18:26;;;;;;;16.47;10.03;;;;;;;13.16;100.00;96455.50;1036146;28;20045;-75
2021/08/25 01:18:57;;;;;;;11.57;9.80;;;;;;;13.18;100.00;96458.72;1036038;28;20592;-75
2021/08/25 01:19:27;;;;;;;11.80;9.87;;;;;;;13.19;100.00;96451.47;1028067;28;20027;-74
2021/08/25 01:20:09;;;;;;;15.10;10.40;;;;;;;13.15;100.00;96456.56;1032011;28;20022;-74
2021/08/25 01:20:40;;;;;;;12.95;9.85;;;;;;;13.19;100.00;96456.81;1027964;28;20073;-74
2021/08/25 01:21:10;;;;;;;13.38;10.25;;;;;;;13.17;100.00;96450.94;1028039;28;20034;-74
2021/08/25 01:21:41;;;;;;;12.30;10.83;;;;;;;13.18;100.00;96452.53;1027387;28;20031;-74
2021/08/25 01:22:11;;;;;;;14.53;10.17;;;;;;;13.22;100.00;96448.28;1028302;28;20109;-75
2021/08/25 01:22:41;;;;;;;15.13;10.60;;;;;;;13.20;100.00;96445.81;1024090;28;20066;-75
2021/08/25 01:23:12;;;;;;;13.23;9.83;;;;;;;13.21;100.00;96455.53;1027965;28;20034;-74
2021/08/25 01:23:44;;;;;;;11.90;9.97;;;;;;;13.21;100.00;96446.63;1032038;28;20419;-74
2021/08/25 01:24:15;;;;;;;11.55;9.95;;;;;;;13.20;100.00;96450.38;1032098;28;20503;-75
2021/08/25 01:24:47;;;;;;;11.50;9.70;;;;;;;13.20;100.00;96442.31;1029006;28;20027;-74
2021/08/25 01:25:17;;;;;;;13.52;10.43;;;;;;;13.11;100.00;96439.44;1032464;28;20036;-74
2021/08/25 01:25:49;;;;;;;12.60;9.87;;;;;;;13.15;100.00;96439.66;1031597;28;20036;-74
2021/08/25 01:26:20;;;;;;;13.50;10.48;;;;;;;13.11;100.00;96441.31;1028607;28;20033;-75
2021/08/25 01:26:51;;;;;;;14.43;9.83;;;;;;;13.10;100.00;96442.38;1036388;28;20573;-75
2021/08/25 01:27:23;;;;;;;15.18;10.40;;;;;;;13.12;100.00;96445.59;1036064;28;20026;-75
2021/08/25 01:27:59;;;;;;;12.10;9.48;;;;;;;13.10;100.00;96442.38;1032502;28;20035;-75
2021/08/25 01:28:33;;;;;;;11.60;9.82;;;;;;;13.11;100.00;96438.63;1030937;28;20111;-75
2021/08/25 01:29:04;;;;;;;12.93;9.48;;;;;;;13.09;100.00;96430.03;1024082;29;20043;-75
2021/08/25 01:29:34;;;;;;;11.70;9.77;;;;;;;13.10;100.00;96434.31;1029353;28;20030;-75
2021/08/25 01:30:05;;;;;;;12.67;10.37;;;;;;;13.08;100.00;96431.91;1036163;28;20022;-75
2021/08/25 01:30:38;;;;;;;13.93;9.57;;;;;;;13.13;100.00;96439.16;1031720;28;20025;-76
2021/08/25 01:31:08;;;;;;;12.80;9.77;;;;;;;13.12;100.00;96427.63;1023963;28;20034;-75
2021/08/25 01:31:38;;;;;;;15.77;10.20;;;;;;;13.13;100.00;96433.78;1027952;28;20069;-76
2021/08/25 01:32:10;;;;;;;12.60;10.17;;;;;;;13.07;100.00;96433.00;1028396;28;20027;-75
2021/08/25 01:32:40;;;;;;;13.27;10.32;;;;;;;13.06;100.00;96433.28;1032596;28;20026;-75
2021/08/25 01:33:27;;;;;;;14.53;10.07;;;;;;;13.05;100.00;96431.66;1040135;28;20471;-75
2021/08/25 01:34:04;;;;;;;17.05;9.85;;;;;;;13.08;100.00;96431.13;1038403;28;20062;-75
2021/08/25 01:34:53;;;;;;;15.95;9.95;;;;;;;13.07;100.00;96429.50;1035966;28;20034;-75
2021/08/25 01:35:42;;;;;;;12.25;9.88;;;;;;;13.00;100.00;96425.25;1038101;28;20030;-75
2021/08/25 01:36:14;;;;;;;12.13;10.43;;;;;;;13.01;100.00;96429.53;1040974;28;20037;-75
2021/08/25 01:36:44;;;;;;;15.43;10.55;;;;;;;13.05;100.00;96428.97;1040187;28;20538;-75
2021/08/25 01:37:14;;;;;;;14.63;10.77;;;;;;;13.03;100.00;96426.56;1036132;28;20046;-75
2021/08/25 01:37:45;;;;;;;13.83;10.20;;;;;;;13.02;100.00;96423.09;1024470;28;20019;-76
2021/08/25 01:38:33;;;;;;;15.00;10.33;;;;;;;12.99;100.00;96423.63;1032259;28;20030;-75
2021/08/25 01:39:04;;;;;;;15.93;10.02;;;;;;;12.96;100.00;96423.38;1034452;28;20113;-76
2021/08/25 01:39:34;;;;;;;13.77;10.40;;;;;;;12.95;100.00;96422.59;1036895;28;20026;-75
2021/08/25 01:40:05;;;;;;;12.13;10.33;;;;;;;12.96;100.00;96421.50;1035982;28;20038;-74
2021/08/25 01:40:35;;;;;;;11.52;9.57;;;;;;;12.98;100.00;96426.59;1036220;28;20190;-75
2021/08/25 01:41:06;;;;;;;15.53;10.07;;;;;;;12.93;100.00;96418.56;1040266;28;20033;-75
2021/08/25 01:41:36;;;;;;;11.97;10.13;;;;;;;12.89;100.00;96414.81;1044225;28;20032;-75
2021/08/25 01:42:07;;;;;;;12.17;10.03;;;;;;;12.92;100.00;96425.81;1040056;28;20112;-75
2021/08/25 01:42:37;;;;;;;16.33;10.63;;;;;;;12.90;100.00;96417.25;1035986;28;20384;-75
2021/08/25 01:43:08;;;;;;;14.50;10.30;;;;;;;12.89;100.00;96426.34;1036132;28;20034;-75
2021/08/25 01:43:38;;;;;;;14.20;10.45;;;;;;;12.90;100.00;96424.50;1035688;28;20026;-75
2021/08/25 01:44:09;;;;;;;12.60;10.90;;;;;;;12.89;100.00;96423.66;1036312;28;20042;-75
2021/08/25 01:44:39;;;;;;;14.63;10.47;;;;;;;12.92;100.00;96427.69;1036073;28;20458;-73
2021/08/25 01:45:10;;;;;;;13.37;10.70;;;;;;;12.97;100.00;96425.78;1032008;28;20384;-73
2021/08/25 01:45:40;;;;;;;13.70;10.53;;;;;;;12.95;100.00;96419.09;1032035;28;20045;-75
2021/08/25 01:46:19;;;;;;;14.27;10.13;;;;;;;12.91;100.00;96418.03;1036228;28;20531;-74
2021/08/25 01:46:49;;;;;;;15.75;10.70;;;;;;;12.89;100.00;96420.19;1044152;28;20059;-74
2021/08/25 01:47:20;;;;;;;12.30;9.97;;;;;;;12.87;100.00;96420.47;1044307;28;20091;-75
2021/08/25 01:47:51;;;;;;;13.30;10.50;;;;;;;12.84;100.00;96423.69;1044273;28;20055;-74
2021/08/25 01:48:21;;;;;;;11.33;9.50;;;;;;;12.86;100.00;96418.06;1043954;28;20044;-74
2021/08/25 01:48:53;;;;;;;13.17;10.57;;;;;;;12.87;100.00;96417.78;1044477;28;20024;-75
2021/08/25 01:49:24;;;;;;;13.55;10.82;;;;;;;12.81;100.00;96424.25;1044260;28;20259;-74
2021/08/25 01:49:54;;;;;;;14.77;10.97;;;;;;;12.80;100.00;96425.31;1044198;28;20413;-74
2021/08/25 01:50:25;;;;;;;13.13;10.70;;;;;;;12.78;100.00;96418.63;1044207;28;20466;-74
2021/08/25 01:50:55;;;;;;;17.03;10.77;;;;;;;12.81;100.00;96424.25;1039985;28;20025;-74
2021/08/25 01:51:26;;;;;;;12.37;10.27;;;;;;;12.76;100.00;96421.56;1035850;28;20030;-75
2021/08/25 01:51:58;;;;;;;14.20;10.90;;;;;;;12.78;100.00;96415.94;1031935;28;20416;-75
2021/08/25 01:52:28;;;;;;;16.98;10.50;;;;;;;12.82;100.00;96415.13;1032309;28;20030;-75
2021/08/25 01:52:59;;;;;;;16.03;10.60;;;;;;;12.84;100.00;96418.31;1036370;28;20018;-75
2021/08/25 01:53:29;;;;;;;13.97;11.00;;;;;;;12.81;100.00;96416.19;1040316;28;20029;-74
2021/08/25 01:54:00;;;;;;;12.90;10.53;;;;;;;12.84;100.00;96412.94;1044206;28;20017;-74
2021/08/25 01:54:30;;;;;;;14.70;10.47;;;;;;;12.89;100.00;96412.13;1044467;28;20025;-74
2021/08/25 01:55:00;;;;;;;13.50;10.57;;;;;;;12.93;100.00;96418.56;1044470;28;20032;-74
2021/08/25 01:55:31;;;;;;;12.03;9.90;;;;;;;12.89;100.00;96412.94;1044405;28;20032;-74
2021/08/25 01:56:01;;;;;;;14.80;9.97;;;;;;;12.90;100.00;96414.56;1044128;28;20025;-75
2021/08/25 01:56:32;;;;;;;15.23;10.90;;;;;;;12.86;100.00;96410.81;1040080;28;20026;-74
2021/08/25 01:57:02;;;;;;;13.17;10.50;;;;;;;12.87;100.00;96409.72;1039956;28;20013;-76
2021/08/25 01:57:33;;;;;;;12.40;9.90;;;;;;;12.92;100.00;96406.22;1040206;28;20018;-75
2021/08/25 01:58:04;;;;;;;13.50;9.90;;;;;;;12.93;100.00;96405.16;1044209;28;20386;-75
2021/08/25 01:58:35;;;;;;;15.15;10.50;;;;;;;12.87;100.00;96409.72;1039960;28;20014;-75
2021/08/25 01:59:06;;;;;;;14.90;10.47;;;;;;;12.82;100.00;96415.13;1036004;28;20049;-75
2021/08/25 01:59:36;;;;;;;12.80;10.75;;;;;;;12.86;100.00;96410.00;1035969;28;20040;-75
2021/08/25 02:00:07;;;;;;;12.07;10.23;;;;;;;12.88;100.00;96411.34;1036386;28;20076;-75
2021/08/25 02:00:38;;;;;;;14.68;10.50;;;;;;;12.84;100.00;96407.59;1044070;28;20021;-75
2021/08/25 02:01:08;;;;;;;12.87;9.93;;;;;;;12.86;100.00;96408.13;1040173;28;20029;-75
2021/08/25 02:01:39;;;;;;;12.80;10.63;;;;;;;12.83;100.00;96407.88;1044210;28;20013;-75
2021/08/25 02:02:09;;;;;;;14.87;10.33;;;;;;;12.88;100.00;96405.16;1040042;28;20032;-75
2021/08/25 02:02:40;;;;;;;15.67;10.63;;;;;;;12.86;100.00;96402.78;1035926;28;20048;-75
2021/08/25 02:03:10;;;;;;;13.73;10.43;;;;;;;12.85;100.00;96400.38;1035840;28;20077;-75
2021/08/25 02:03:40;;;;;;;13.20;10.73;;;;;;;12.86;100.00;96399.28;1033082;28;20049;-75
2021/08/25 02:04:11;;;;;;;13.73;10.30;;;;;;;12.88;100.00;96405.16;1032104;28;20039;-75
2021/08/25 02:04:41;;;;;;;14.90;10.63;;;;;;;12.86;100.00;96402.78;1044160;28;20021;-76
2021/08/25 02:05:12;;;;;;;16.83;10.57;;;;;;;12.91;100.00;96397.38;1044168;28;20025;-75
2021/08/25 02:05:42;;;;;;;13.53;10.33;;;;;;;12.92;100.00;96403.56;1044219;28;20021;-75
2021/08/25 02:06:12;;;;;;;11.80;9.93;;;;;;;12.94;100.00;96399.50;1044224;28;20079;-75
2021/08/25 02:06:43;;;;;;;14.13;9.67;;;;;;;12.98;100.00;96399.75;1040356;28;20039;-75
2021/08/25 02:07:13;;;;;;;13.63;9.97;;;;;;;12.96;100.00;96408.09;1040295;28;20064;-75
2021/08/25 02:07:47;;;;;;;14.98;10.57;;;;;;;12.91;100.00;96397.38;1040335;28;20104;-75
2021/08/25 02:08:17;;;;;;;16.50;10.67;;;;;;;12.82;100.00;96393.66;1040070;28;20040;-75
2021/08/25 02:08:48;;;;;;;12.00;10.00;;;;;;;12.87;100.00;96404.38;1035855;28;20459;-75
2021/08/25 02:09:18;;;;;;;14.67;9.97;;;;;;;12.78;100.00;96399.84;1035918;28;20025;-75
2021/08/25 02:09:48;;;;;;;12.40;10.00;;;;;;;12.82;100.00;96403.59;1031976;28;20018;-76
2021/08/25 02:10:19;;;;;;;12.87;10.33;;;;;;;12.79;100.00;96409.47;1035877;28;20022;-75
2021/08/25 02:10:49;;;;;;;14.10;9.83;;;;;;;12.80;100.00;96403.06;1040063;28;20017;-75
2021/08/25 02:11:20;;;;;;;14.53;10.10;;;;;;;12.73;100.00;96398.78;1039982;28;20037;-75
2021/08/25 02:11:50;;;;;;;12.63;10.47;;;;;;;12.75;100.00;96398.53;1040364;28;20040;-75
2021/08/25 02:12:20;;;;;;;12.33;9.87;;;;;;;12.75;100.00;96399.31;1040345;28;20017;-75
2021/08/25 02:12:51;;;;;;;14.63;10.30;;;;;;;12.74;100.00;96399.56;1042931;28;20021;-75
2021/08/25 02:13:21;;;;;;;13.87;10.20;;;;;;;12.72;100.00;96401.75;1044113;28;20025;-76
2021/08/25 02:13:52;;;;;;;13.33;10.53;;;;;;;12.71;100.00;96402.81;1040017;28;20453;-75
2021/08/25 02:14:22;;;;;;;13.27;10.40;;;;;;;12.67;100.00;96399.06;1036066;28;20052;-75
2021/08/25 02:14:53;;;;;;;13.07;10.03;;;;;;;12.67;100.00;96401.75;1044031;28;20369;-74
2021/08/25 02:15:23;;;;;;;14.70;10.97;;;;;;;12.70;100.00;96398.53;1044102;28;20025;-75
2021/08/25 02:15:54;;;;;;;16.80;10.50;;;;;;;12.67;100.00;96396.41;1048352;28;20020;-75
2021/08/25 02:16:24;;;;;;;13.33;10.83;;;;;;;12.70;100.00;96402.03;1052444;28;20031;-75
2021/08/25 02:16:54;;;;;;;14.83;10.40;;;;;;;12.70;100.00;96404.69;1044344;28;20025;-75
2021/08/25 02:17:25;;;;;;;16.23;10.57;;;;;;;12.71;100.00;96400.13;1044156;28;20035;-74
2021/08/25 02:17:55;;;;;;;13.27;10.57;;;;;;;12.65;100.00;96394.00;1044411;28;20033;-75
2021/08/25 02:18:26;;;;;;;14.17;10.73;;;;;;;12.60;100.00;96394.00;1044389;28;20036;-75
2021/08/25 02:18:56;;;;;;;17.57;11.40;;;;;;;12.59;100.00;96391.56;1044509;28;20021;-75
2021/08/25 02:19:27;;;;;;;16.13;9.93;;;;;;;12.60;100.00;96390.53;1044019;28;20017;-75
2021/08/25 02:19:57;;;;;;;16.43;10.30;;;;;;;12.60;100.00;96390.53;1040057;28;20503;-75
2021/08/25 02:20:27;;;;;;;11.80;10.13;;;;;;;12.58;100.00;96387.28;1039872;28;20467;-75
2021/08/25 02:20:58;;;;;;;12.83;10.50;;;;;;;12.62;100.00;96393.72;1035974;28;20037;-75
2021/08/25 02:21:29;;;;;;;13.60;9.88;;;;;;;12.62;100.00;96391.84;1036019;28;20054;-75
2021/08/25 02:21:59;;;;;;;13.53;10.30;;;;;;;12.65;100.00;96387.81;1036111;28;20033;-75
2021/08/25 02:22:30;;;;;;;13.30;10.30;;;;;;;12.61;100.00;96387.56;1036071;28;20137;-75
2021/08/25 02:23:00;;;;;;;14.80;10.77;;;;;;;12.61;100.00;96387.56;1039776;28;20022;-75
2021/08/25 02:23:31;;;;;;;12.30;10.43;;;;;;;12.65;100.00;96390.50;1036015;28;20021;-75